Aviation Digital Data Service (ADDS)

Output produced by TAFs form (1541 UTC 31 October 2014)
found at http://aviationweather.gov/adds/tafs/
 
KGJT 311120Z 3112/0112 11007KT P6SM FEW250 
     FM311600 14005KT P6SM SCT250 
     FM312000 24008KT P6SM FEW150 BKN250 
     FM010200 08003KT P6SM BKN150 
     FM010500 12012KT P6SM BKN150